GMMC/CAS METAR and TAF weather

Enter ICAO airport designator
Station Type Date Time Source
GMMC METAR 2021/04/13 19:00 UTC NOAA

GMMC 131900Z 02008KT 9999 FEW016 SCT100 BKN200 18/16 Q1015


Station Type Date Time Source
GMMC Decoded METAR 2021/04/13 19:00 UTC NOAA

Casablanca, Morocco (GMMC) 33-34N 007-40W 62M
Apr 13, 2021 - 03:00 PM EDT / 2021.04.13 1900 UTC
Wind: from the NNE (020 degrees) at 9 MPH (8 KT):0
Visibility: greater than 7 mile(s):0
Sky conditions: mostly cloudy
Temperature: 64 F (18 C)
Dew Point: 60 F (16 C)
Relative Humidity: 88%
Pressure (altimeter): 29.97 in. Hg (1015 hPa)
ob: GMMC 131900Z 02008KT 9999 FEW016 SCT100 BKN200 18/16 Q1015
cycle: 19

Station Type Date Time Source
GMMC TAF 2016/05/22 17:00 UTC NOAA

FTMC31 GMMC 221700 RRA TAF LPPT 221700Z 2218/2324 34013KT CAVOK
BECMG 2221/2224 34007KT
BECMG 2310/2312 VRB03KT

Example: see airport list